createdAt,value
2022-12-26T00:00:55.295Z,9.41
2022-12-26T00:03:23.986Z,9.38
2022-12-26T00:05:54.687Z,9.42
2022-12-26T00:08:22.978Z,9.46
2022-12-26T00:10:51.344Z,9.40
2022-12-26T00:13:39.739Z,9.44
2022-12-26T00:16:12.017Z,9.42
2022-12-26T00:18:40.826Z,9.44
2022-12-26T00:21:11.010Z,9.42
2022-12-26T00:23:39.781Z,9.46
2022-12-26T00:26:10.449Z,9.41
2022-12-26T00:28:39.168Z,9.44
2022-12-26T00:31:09.335Z,9.46
2022-12-26T00:33:40.714Z,9.46
2022-12-26T00:36:11.021Z,9.47
2022-12-26T00:38:39.776Z,9.49
2022-12-26T00:41:09.851Z,9.48
2022-12-26T00:43:38.274Z,9.52
2022-12-26T00:46:07.486Z,9.51
2022-12-26T00:48:36.274Z,9.52
2022-12-26T00:51:06.701Z,9.52
2022-12-26T00:53:35.075Z,9.55
2022-12-26T00:56:03.861Z,9.52
2022-12-26T00:58:32.664Z,9.53
2022-12-26T01:01:08.015Z,9.55
2022-12-26T01:03:36.332Z,9.53
2022-12-26T01:06:06.375Z,9.52
2022-12-26T01:08:34.643Z,9.50
2022-12-26T01:11:06.450Z,9.49
2022-12-26T01:13:35.070Z,9.48
2022-12-26T01:16:03.627Z,9.42
2022-12-26T01:18:32.285Z,9.38
2022-12-26T01:21:07.485Z,9.31
2022-12-26T01:23:52.740Z,9.31
2022-12-26T01:26:34.979Z,9.30
2022-12-26T01:29:03.277Z,9.24
2022-12-26T01:31:31.632Z,9.18
2022-12-26T01:33:59.928Z,9.17
2022-12-26T01:36:28.160Z,9.11
2022-12-26T01:38:57.883Z,9.09
2022-12-26T01:41:26.850Z,9.02
2022-12-26T01:43:58.120Z,9.06
2022-12-26T01:46:31.268Z,9.02
2022-12-26T01:49:02.832Z,8.97
2022-12-26T01:51:34.712Z,8.96
2022-12-26T01:54:38.035Z,8.96
2022-12-26T01:56:55.273Z,8.92
2022-12-26T01:59:27.753Z,8.91
2022-12-26T02:01:56.984Z,8.86
2022-12-26T02:04:47.984Z,8.80
2022-12-26T02:07:16.448Z,8.79
2022-12-26T02:09:46.979Z,8.79
2022-12-26T02:12:34.784Z,8.77
2022-12-26T02:15:09.060Z,8.73
2022-12-26T02:17:39.026Z,8.78
2022-12-26T02:20:18.980Z,8.76
2022-12-26T02:23:22.302Z,8.76
2022-12-26T02:26:19.223Z,8.73
2022-12-26T02:29:05.882Z,8.70
2022-12-26T02:31:45.112Z,8.66
2022-12-26T02:34:17.265Z,8.65
2022-12-26T02:37:00.240Z,8.68
2022-12-26T02:39:48.318Z,8.63
2022-12-26T02:42:30.073Z,8.56
2022-12-26T02:45:24.144Z,8.60
2022-12-26T02:47:58.744Z,8.52
2022-12-26T02:51:11.256Z,8.50
2022-12-26T02:54:05.227Z,8.53
2022-12-26T02:56:55.358Z,8.45
2022-12-26T02:59:55.519Z,8.48
2022-12-26T03:02:49.349Z,8.47
2022-12-26T03:05:43.222Z,8.43
2022-12-26T03:08:34.177Z,8.43
2022-12-26T03:11:19.939Z,8.39
2022-12-26T03:13:50.652Z,8.41
2022-12-26T03:16:37.281Z,8.44
2022-12-26T03:19:08.658Z,8.41
2022-12-26T03:21:46.318Z,8.38
2022-12-26T03:24:18.071Z,8.39
2022-12-26T03:26:51.966Z,8.44
2022-12-26T03:29:39.326Z,8.44
2022-12-26T03:32:09.678Z,8.41
2022-12-26T03:34:42.555Z,8.41
2022-12-26T03:37:49.119Z,8.42
2022-12-26T03:40:57.442Z,8.42
2022-12-26T03:43:57.832Z,8.44
2022-12-26T03:46:52.548Z,8.42
2022-12-26T03:49:45.367Z,8.39
2022-12-26T03:52:40.929Z,8.42
2022-12-26T03:55:33.792Z,8.43
2022-12-26T03:58:25.413Z,8.45
2022-12-26T04:01:14.094Z,8.48
2022-12-26T04:04:03.044Z,8.52
2022-12-26T04:06:55.122Z,8.53
2022-12-26T04:09:46.771Z,8.62
2022-12-26T04:12:40.642Z,8.60
2022-12-26T04:15:36.264Z,8.62
2022-12-26T04:18:28.012Z,8.62
2022-12-26T04:21:07.856Z,8.57
2022-12-26T04:24:05.352Z,8.60
2022-12-26T04:26:55.748Z,8.64
2022-12-26T04:29:43.499Z,8.71
2022-12-26T04:32:35.407Z,8.78
2022-12-26T04:35:26.795Z,8.81
2022-12-26T04:38:15.522Z,8.86
2022-12-26T04:41:09.490Z,8.93
2022-12-26T04:43:57.346Z,8.93
2022-12-26T04:46:28.552Z,8.95
2022-12-26T04:49:14.756Z,9.02
2022-12-26T04:51:43.056Z,9.08
2022-12-26T04:54:11.345Z,9.08
2022-12-26T04:56:39.637Z,9.14
2022-12-26T04:59:07.880Z,9.18
2022-12-26T05:01:55.166Z,9.17
2022-12-26T05:04:40.786Z,9.16
2022-12-26T05:07:33.574Z,9.11
2022-12-26T05:10:02.305Z,9.06
2022-12-26T05:12:30.532Z,9.03
2022-12-26T05:14:58.804Z,9.03
2022-12-26T05:17:46.084Z,9.01
2022-12-26T05:20:46.574Z,8.90
2022-12-26T05:23:36.997Z,8.91
2022-12-26T05:26:23.190Z,8.92
2022-12-26T05:28:59.404Z,8.94
2022-12-26T05:31:34.622Z,8.90
2022-12-26T05:34:07.146Z,8.95
2022-12-26T05:36:39.424Z,8.93
2022-12-26T05:39:08.815Z,8.88
2022-12-26T05:41:37.273Z,8.91
2022-12-26T05:44:06.358Z,8.93
2022-12-26T05:46:34.971Z,8.88
2022-12-26T05:49:03.910Z,8.96
2022-12-26T05:51:33.562Z,8.89
2022-12-26T05:54:02.926Z,8.83
2022-12-26T05:56:31.356Z,8.81
2022-12-26T05:59:01.477Z,8.91
2022-12-26T06:01:31.178Z,8.88
2022-12-26T06:04:01.287Z,8.95
2022-12-26T06:06:30.190Z,9.04
2022-12-26T06:08:59.895Z,9.04
2022-12-26T06:11:28.615Z,9.21
2022-12-26T06:13:57.308Z,9.14
2022-12-26T06:16:25.728Z,9.21
2022-12-26T06:18:55.878Z,9.24
2022-12-26T06:21:24.255Z,9.17
2022-12-26T06:23:52.489Z,9.16
2022-12-26T06:26:22.178Z,9.19
2022-12-26T06:28:50.481Z,9.21
2022-12-26T06:31:21.477Z,9.18
2022-12-26T06:33:51.387Z,9.15
2022-12-26T06:36:22.282Z,9.09
2022-12-26T06:38:51.193Z,9.00
2022-12-26T06:41:22.755Z,9.09
2022-12-26T06:43:51.776Z,9.10
2022-12-26T06:46:22.355Z,9.16
2022-12-26T06:48:50.857Z,9.22
2022-12-26T06:51:21.073Z,9.21
2022-12-26T06:53:50.021Z,9.21
2022-12-26T06:56:19.962Z,9.26
2022-12-26T06:58:53.163Z,9.21
2022-12-26T07:01:22.460Z,9.22
2022-12-26T07:03:52.076Z,9.22
2022-12-26T07:06:24.874Z,9.27
2022-12-26T07:08:54.324Z,9.32
2022-12-26T07:11:24.537Z,9.41
2022-12-26T07:13:54.862Z,9.37
2022-12-26T07:16:23.660Z,9.32
2022-12-26T07:18:54.039Z,9.42
2022-12-26T07:21:22.561Z,9.33
2022-12-26T07:23:50.874Z,9.44
2022-12-26T07:26:19.718Z,9.51
2022-12-26T07:28:48.369Z,9.51
2022-12-26T07:31:20.313Z,9.49
2022-12-26T07:33:50.326Z,9.51
2022-12-26T07:36:20.622Z,9.51
2022-12-26T07:38:49.466Z,9.42
2022-12-26T07:41:34.899Z,9.41
2022-12-26T07:44:03.214Z,9.39
2022-12-26T07:46:33.076Z,9.46
2022-12-26T07:49:01.446Z,9.44
2022-12-26T07:51:29.950Z,9.51
2022-12-26T07:53:58.243Z,9.55
2022-12-26T07:56:26.493Z,9.48
2022-12-26T07:58:54.788Z,9.44
2022-12-26T08:01:23.160Z,9.37
2022-12-26T08:03:53.426Z,9.41
2022-12-26T08:06:22.303Z,9.47
2022-12-26T08:08:53.040Z,9.47
2022-12-26T08:11:24.354Z,9.46
2022-12-26T08:13:53.284Z,9.56
2022-12-26T08:16:22.040Z,9.75
2022-12-26T08:18:50.465Z,9.76
2022-12-26T08:21:20.081Z,9.78
2022-12-26T08:23:48.506Z,9.80
2022-12-26T08:26:22.481Z,9.84
2022-12-26T08:28:52.086Z,9.95
2022-12-26T08:31:21.532Z,9.99
2022-12-26T08:33:50.227Z,10.10
2022-12-26T08:36:20.022Z,10.05
2022-12-26T08:38:48.345Z,10.05
2022-12-26T08:41:17.695Z,10.09
2022-12-26T08:46:38.325Z,10.07
2022-12-26T08:49:06.691Z,10.04
2022-12-26T08:51:36.920Z,10.00
2022-12-26T08:54:06.046Z,10.03
2022-12-26T08:56:34.381Z,10.01
2022-12-26T08:59:02.657Z,9.94
2022-12-26T09:01:32.256Z,9.86
2022-12-26T09:04:06.727Z,9.79
2022-12-26T09:06:39.511Z,9.74
2022-12-26T09:09:11.276Z,9.75
2022-12-26T09:11:42.280Z,9.79
2022-12-26T09:14:11.286Z,9.79
2022-12-26T09:16:49.628Z,9.82
2022-12-26T09:19:19.539Z,9.86
2022-12-26T09:22:10.254Z,9.79
2022-12-26T09:24:38.603Z,9.75
2022-12-26T09:27:07.203Z,9.77
2022-12-26T09:29:35.689Z,9.86
2022-12-26T09:32:03.975Z,9.96
2022-12-26T09:34:32.842Z,9.95
2022-12-26T09:37:02.467Z,10.05
2022-12-26T09:39:30.847Z,10.07
2022-12-26T09:42:06.179Z,10.21
2022-12-26T09:44:45.058Z,10.19
2022-12-26T09:47:31.479Z,10.07
2022-12-26T09:50:04.302Z,9.40
2022-12-26T09:52:44.042Z,9.12
2022-12-26T09:55:33.207Z,8.98
2022-12-26T09:58:09.558Z,8.93
2022-12-26T10:00:44.830Z,8.87
2022-12-26T10:03:13.394Z,8.80
2022-12-26T10:05:56.577Z,8.75
2022-12-26T10:08:34.378Z,8.71
2022-12-26T10:11:04.159Z,8.64
2022-12-26T10:13:40.100Z,8.60
2022-12-26T10:16:15.329Z,8.55
2022-12-26T10:18:54.621Z,8.47
2022-12-26T10:21:36.317Z,8.38
2022-12-26T10:24:12.995Z,8.44
2022-12-26T10:26:45.124Z,8.50
2022-12-26T10:29:21.146Z,8.64
2022-12-26T10:31:54.751Z,8.60
2022-12-26T10:34:29.082Z,8.51
2022-12-26T10:37:01.780Z,8.62
2022-12-26T10:39:36.079Z,8.62
2022-12-26T10:42:13.099Z,8.61
2022-12-26T10:44:42.274Z,8.52
2022-12-26T10:47:24.988Z,8.42
2022-12-26T10:49:53.721Z,8.32
2022-12-26T10:52:26.706Z,8.24
2022-12-26T10:55:29.179Z,8.31
2022-12-26T10:57:51.380Z,8.35
2022-12-26T11:00:22.145Z,8.28
2022-12-26T11:03:04.463Z,8.30
2022-12-26T11:08:27.909Z,8.32
2022-12-26T11:11:06.737Z,8.50
2022-12-26T11:13:40.152Z,8.53
2022-12-26T11:16:09.586Z,8.65
2022-12-26T11:18:39.996Z,8.80
2022-12-26T11:21:14.931Z,8.80
2022-12-26T11:23:43.357Z,8.73
2022-12-26T11:26:23.622Z,8.59
2022-12-26T11:29:07.686Z,8.53
2022-12-26T11:31:36.132Z,8.33
2022-12-26T11:34:09.893Z,8.31
2022-12-26T11:36:45.780Z,8.16
2022-12-26T11:39:23.651Z,8.22
2022-12-26T11:41:54.297Z,8.11
2022-12-26T11:44:27.574Z,8.11
2022-12-26T11:46:59.063Z,8.03
2022-12-26T11:49:32.126Z,7.96
2022-12-26T11:52:02.061Z,8.02
2022-12-26T11:54:36.943Z,8.02
2022-12-26T11:57:16.349Z,7.96
2022-12-26T11:59:45.375Z,7.93
2022-12-26T12:02:30.957Z,7.89
2022-12-26T12:05:03.728Z,7.87
2022-12-26T12:07:55.895Z,7.98
2022-12-26T12:10:55.595Z,8.02
2022-12-26T12:13:46.144Z,7.91
2022-12-26T12:16:32.269Z,7.97
2022-12-26T12:19:15.451Z,7.88
2022-12-26T12:21:46.010Z,7.96
2022-12-26T12:24:49.441Z,7.90
2022-12-26T12:27:22.842Z,7.90
2022-12-26T12:30:07.552Z,8.06
2022-12-26T12:32:49.608Z,8.16
2022-12-26T12:35:39.363Z,8.20
2022-12-26T12:38:24.618Z,8.08
2022-12-26T12:40:58.677Z,7.86
2022-12-26T12:43:32.573Z,7.98
2022-12-26T12:46:10.372Z,8.06
2022-12-26T12:48:55.440Z,8.05
2022-12-26T12:51:35.952Z,7.78
2022-12-26T12:54:48.321Z,7.65
2022-12-26T12:57:24.424Z,7.73
2022-12-26T13:00:04.658Z,7.61
2022-12-26T13:02:39.827Z,7.47
2022-12-26T13:05:30.028Z,7.22
2022-12-26T13:08:03.554Z,7.11
2022-12-26T13:10:35.183Z,6.89
2022-12-26T13:13:19.303Z,6.78
2022-12-26T13:15:52.669Z,6.74
2022-12-26T13:18:24.785Z,6.66
2022-12-26T13:20:56.355Z,6.65
2022-12-26T13:23:53.697Z,6.61
2022-12-26T13:26:27.134Z,6.65
2022-12-26T13:29:02.214Z,6.57
2022-12-26T13:31:34.515Z,6.65
2022-12-26T13:34:06.579Z,6.70
2022-12-26T13:36:37.757Z,6.82
2022-12-26T13:39:36.808Z,6.82
2022-12-26T13:42:37.768Z,6.84
2022-12-26T13:45:56.592Z,6.80
2022-12-26T13:49:08.098Z,6.74
2022-12-26T13:51:49.935Z,6.72
2022-12-26T13:54:19.352Z,6.70
2022-12-26T13:57:21.078Z,6.70
2022-12-26T14:00:02.393Z,6.63
2022-12-26T14:03:20.591Z,6.68
2022-12-26T14:06:28.582Z,6.65
2022-12-26T14:09:29.111Z,6.53
2022-12-26T14:12:10.217Z,6.54
2022-12-26T14:14:54.418Z,6.54
2022-12-26T14:17:34.642Z,6.44
2022-12-26T14:20:13.557Z,6.43
2022-12-26T14:22:49.079Z,6.33
2022-12-26T14:25:24.339Z,6.25
2022-12-26T14:27:59.588Z,6.28
2022-12-26T14:30:35.379Z,6.25
2022-12-26T14:33:25.385Z,6.23
2022-12-26T14:36:06.786Z,6.21
2022-12-26T14:38:45.094Z,6.16
2022-12-26T14:41:35.832Z,6.11
2022-12-26T14:44:17.074Z,6.02
2022-12-26T14:47:01.681Z,6.00
2022-12-26T14:49:42.138Z,5.92
2022-12-26T14:52:40.722Z,5.86
2022-12-26T14:55:42.265Z,5.77
2022-12-26T14:58:27.024Z,5.71
2022-12-26T15:00:58.866Z,5.80
2022-12-26T15:03:44.800Z,5.67
2022-12-26T15:06:52.882Z,5.62
2022-12-26T15:10:08.733Z,5.53
2022-12-26T15:13:09.247Z,5.46
2022-12-26T15:16:01.193Z,5.41
2022-12-26T15:19:06.623Z,5.33
2022-12-26T15:22:01.785Z,5.24
2022-12-26T15:25:19.688Z,5.07
2022-12-26T15:28:27.431Z,5.04
2022-12-26T15:31:36.658Z,4.97
2022-12-26T15:34:29.587Z,4.86
2022-12-26T15:37:06.748Z,4.79
2022-12-26T15:39:42.179Z,4.74
2022-12-26T15:42:26.235Z,4.73
2022-12-26T15:45:09.827Z,4.69
2022-12-26T15:47:44.425Z,4.64
2022-12-26T15:50:25.079Z,4.60
2022-12-26T15:53:06.737Z,4.52
2022-12-26T15:55:53.254Z,4.46
2022-12-26T15:58:37.263Z,4.38
2022-12-26T16:01:07.096Z,4.37
2022-12-26T16:03:46.656Z,4.32
2022-12-26T16:06:40.819Z,4.28
2022-12-26T16:09:28.368Z,4.21
2022-12-26T16:11:58.561Z,4.20
2022-12-26T16:14:30.535Z,4.16
2022-12-26T16:17:11.966Z,4.08
2022-12-26T16:19:41.586Z,4.00
2022-12-26T16:22:35.967Z,3.97
2022-12-26T16:25:05.173Z,3.90
2022-12-26T16:27:33.694Z,3.89
2022-12-26T16:30:11.352Z,3.90
2022-12-26T16:32:42.500Z,3.93
2022-12-26T16:35:19.990Z,3.83
2022-12-26T16:37:50.565Z,3.79
2022-12-26T16:40:23.346Z,3.74
2022-12-26T16:43:05.552Z,3.73
2022-12-26T16:45:36.489Z,3.78
2022-12-26T16:48:08.298Z,3.73
2022-12-26T16:50:46.123Z,3.71
2022-12-26T16:53:18.565Z,3.68
2022-12-26T16:55:49.137Z,3.67
2022-12-26T16:58:23.022Z,3.61
2022-12-26T17:01:09.110Z,3.55
2022-12-26T17:03:41.965Z,3.47
2022-12-26T17:06:15.313Z,3.56
2022-12-26T17:08:48.521Z,3.53
2022-12-26T17:11:17.341Z,3.53
2022-12-26T17:13:52.856Z,3.59
2022-12-26T17:16:25.840Z,3.62
2022-12-26T17:18:55.180Z,3.55
2022-12-26T17:21:30.218Z,3.56
2022-12-26T17:24:26.280Z,3.56
2022-12-26T17:27:10.027Z,3.52
2022-12-26T17:29:48.272Z,3.54
2022-12-26T17:32:22.023Z,3.63
2022-12-26T17:34:50.687Z,3.58
2022-12-26T17:37:24.709Z,3.58
2022-12-26T17:40:02.585Z,3.56
2022-12-26T17:42:41.002Z,3.50
2022-12-26T17:45:11.137Z,3.38
2022-12-26T17:47:39.546Z,3.35
2022-12-26T17:50:08.165Z,3.40
2022-12-26T17:52:37.486Z,3.47
2022-12-26T17:55:16.493Z,3.43
2022-12-26T17:57:44.839Z,3.42
2022-12-26T18:00:19.235Z,3.41
2022-12-26T18:02:47.812Z,3.38
2022-12-26T18:05:16.759Z,3.50
2022-12-26T18:07:45.825Z,3.67
2022-12-26T18:10:20.940Z,3.69
2022-12-26T18:12:50.089Z,3.71
2022-12-26T18:15:19.431Z,3.67
2022-12-26T18:17:49.372Z,3.64
2022-12-26T18:20:19.291Z,3.62
2022-12-26T18:22:48.389Z,3.70
2022-12-26T18:25:19.669Z,3.70
2022-12-26T18:27:49.320Z,3.63
2022-12-26T18:30:19.777Z,3.67
2022-12-26T18:32:49.266Z,3.59
2022-12-26T18:35:19.089Z,3.53
2022-12-26T18:37:49.544Z,3.50
2022-12-26T18:40:29.666Z,3.47
2022-12-26T18:42:58.422Z,3.32
2022-12-26T18:45:27.048Z,3.28
2022-12-26T18:47:55.409Z,3.18
2022-12-26T18:50:24.490Z,3.26
2022-12-26T18:52:53.968Z,3.31
2022-12-26T18:55:25.369Z,3.26
2022-12-26T18:57:54.620Z,3.35
2022-12-26T19:00:24.032Z,3.28
2022-12-26T19:02:52.916Z,3.28
2022-12-26T19:05:24.029Z,3.21
2022-12-26T19:07:52.385Z,3.26
2022-12-26T19:10:24.772Z,3.23
2022-12-26T19:12:53.363Z,3.24
2022-12-26T19:15:22.117Z,3.18
2022-12-26T19:17:50.542Z,3.28
2022-12-26T19:20:25.296Z,3.32
2022-12-26T19:22:55.214Z,3.29
2022-12-26T19:25:26.924Z,3.21
2022-12-26T19:27:55.685Z,3.19
2022-12-26T19:30:24.372Z,3.18
2022-12-26T19:32:52.640Z,3.31
2022-12-26T19:35:21.334Z,3.28
2022-12-26T19:37:51.815Z,3.24
2022-12-26T19:40:24.998Z,3.24
2022-12-26T19:42:55.033Z,3.27
2022-12-26T19:45:23.478Z,3.28
2022-12-26T19:47:54.582Z,3.32
2022-12-26T19:50:22.958Z,3.35
2022-12-26T19:52:51.280Z,3.40
2022-12-26T19:55:19.958Z,3.42
2022-12-26T19:57:48.263Z,3.34
2022-12-26T20:00:18.233Z,3.34
2022-12-26T20:02:46.954Z,3.32
2022-12-26T20:05:15.324Z,3.32
2022-12-26T20:07:43.592Z,3.29
2022-12-26T20:10:11.930Z,3.33
2022-12-26T20:12:40.250Z,3.39
2022-12-26T20:15:09.567Z,3.34
2022-12-26T20:17:39.270Z,3.36
2022-12-26T20:20:09.247Z,3.41
2022-12-26T20:22:37.817Z,3.43
2022-12-26T20:25:09.886Z,3.36
2022-12-26T20:27:38.289Z,3.38
2022-12-26T20:30:10.096Z,3.34
2022-12-26T20:32:44.019Z,3.34
2022-12-26T20:35:12.565Z,3.41
2022-12-26T20:37:40.970Z,3.43
2022-12-26T20:40:10.913Z,3.53
2022-12-26T20:42:39.222Z,3.48
2022-12-26T20:45:09.423Z,3.48
2022-12-26T20:47:39.158Z,3.43
2022-12-26T20:50:09.132Z,3.53
2022-12-26T20:52:37.477Z,3.56
2022-12-26T20:55:08.058Z,3.53
2022-12-26T20:57:36.376Z,3.50
2022-12-26T21:00:07.031Z,3.46
2022-12-26T21:02:35.686Z,3.40
2022-12-26T21:05:07.478Z,3.43
2022-12-26T21:07:36.007Z,3.38
2022-12-26T21:10:06.163Z,3.35
2022-12-26T21:12:34.863Z,3.33
2022-12-26T21:15:03.194Z,3.32
2022-12-26T21:17:32.600Z,3.27
2022-12-26T21:20:00.962Z,3.16
2022-12-26T21:22:30.674Z,3.25
2022-12-26T21:24:59.016Z,3.26
2022-12-26T21:27:27.376Z,3.30
2022-12-26T21:29:55.767Z,3.32
2022-12-26T21:32:24.072Z,3.34
2022-12-26T21:34:52.427Z,3.33
2022-12-26T21:37:37.952Z,3.41
2022-12-26T21:40:09.538Z,3.39
2022-12-26T21:42:38.625Z,3.36
2022-12-26T21:45:08.329Z,3.35
2022-12-26T21:47:37.325Z,3.39
2022-12-26T21:50:06.223Z,3.38
2022-12-26T21:52:34.680Z,3.41
2022-12-26T21:55:20.824Z,3.33
2022-12-26T21:57:50.605Z,3.35
2022-12-26T22:00:19.255Z,3.29
2022-12-26T22:03:05.256Z,3.25
2022-12-26T22:05:37.501Z,3.20
2022-12-26T22:08:08.393Z,3.27
2022-12-26T22:10:55.393Z,3.29
2022-12-26T22:13:26.783Z,3.32
2022-12-26T22:16:07.176Z,3.27
2022-12-26T22:18:38.311Z,3.26
2022-12-26T22:21:10.510Z,3.33
2022-12-26T22:23:39.507Z,3.41
2022-12-26T22:26:10.388Z,3.42
2022-12-26T22:28:40.434Z,3.33
2022-12-26T22:31:08.978Z,3.31
2022-12-26T22:33:37.327Z,3.18
2022-12-26T22:36:08.300Z,3.28
2022-12-26T22:38:37.478Z,3.30
2022-12-26T22:41:07.589Z,3.30
2022-12-26T22:43:36.890Z,3.29
2022-12-26T22:46:07.341Z,3.26
2022-12-26T22:48:35.830Z,3.21
2022-12-26T22:51:04.349Z,3.15
2022-12-26T22:53:33.571Z,3.20
2022-12-26T22:56:04.400Z,3.24
2022-12-26T22:58:34.041Z,3.23
2022-12-26T23:01:02.442Z,3.29
2022-12-26T23:03:32.131Z,3.26
2022-12-26T23:06:00.763Z,3.25
2022-12-26T23:08:29.579Z,3.26
2022-12-26T23:10:59.565Z,3.29
2022-12-26T23:13:28.470Z,3.30
2022-12-26T23:16:02.505Z,3.25
2022-12-26T23:18:57.284Z,3.26
2022-12-26T23:21:42.159Z,3.26
2022-12-26T23:24:14.911Z,3.31
2022-12-26T23:26:45.345Z,3.36
2022-12-26T23:29:32.208Z,3.41
2022-12-26T23:32:00.848Z,3.44
2022-12-26T23:34:31.350Z,3.41
2022-12-26T23:36:59.773Z,3.34
2022-12-26T23:39:28.109Z,3.19
2022-12-26T23:41:56.737Z,3.25
2022-12-26T23:44:25.071Z,3.25
2022-12-26T23:46:53.312Z,3.31
2022-12-26T23:49:21.624Z,3.24
2022-12-26T23:51:51.403Z,3.25
2022-12-26T23:54:19.695Z,3.30
2022-12-26T23:56:47.917Z,3.31
2022-12-26T23:59:16.191Z,3.36
